x

South Hatteras - 225 South Of Cape Hatteras (41002) Wave Buoy

6:50am - Wed 5th Aug 2015 All times are EDT. -4 hours from GMT.

  • Sig Wave height 5.6ft
  • Swell Direction
  • Peak Period 7s
  • Average Period 6s
  • Wind
    13mph, 16mph gusts
  • Sea Temp 81°f
  • 空気 Temp 83°f
  • Sea Pressure 1018.6mb
  • South Hatteras - 225 South Of Cape Hatteras
  • South Hatteras - 225 South Of Cape Hatteras

More Historic Weather Station data

Upgrade to MSW Pro to gain access to the past 30 days of data for over 8000 Wavebouys and Weather Stations around the globe.

Join Pro

Comparision Forecast

View Surf forecast
   
Wed 08/05 6:50am 5.5ft 7s 6s 13 16 mph 1018.6mb 81f 83f
5:50am 5.5ft 8s 6s 16 18 mph 1018.4mb 81f 83f
4:50am 5.5ft 7s 5s 18 22 mph 1017.6mb 81f 82f
3:50am 6ft 7s 6s 18 22 mph 1017.9mb 81f 82f
2:50am 5.5ft 8s 6s 18 20 mph 1017.9mb 82f 82f
1:50am 6ft 7s 6s 16 20 mph 1018.5mb 81f 82f
Tue 08/04 11:50pm 5.5ft 6s 6s 9 11 mph 1018.9mb 81f 82f
10:50pm 6ft 7s 6s 16 18 mph 1018.9mb 81f 82f
9:50pm 6ft 7s 6s 18 20 mph 1019mb 81f 82f
8:50pm 6ft 7s 6s 22 25 mph 1018.5mb 81f 82f
7:50pm 5ft 8s 6s 18 20 mph 1018mb 82f 82f
6:50pm 5.5ft 7s 6s 13 18 mph 1017.6mb 82f 83f
5:50pm 5.5ft 7s 6s 16 18 mph 1018.3mb 82f 83f
4:50pm 5ft 7s 6s 16 20 mph 1018.5mb 82f 83f
3:50pm 5.5ft 6s 6s 16 18 mph 1018.8mb 82f 83f
2:50pm 5ft 7s 6s 13 16 mph 1019.4mb 82f 83f
1:50pm 5ft 6s 5s 13 16 mph 1019.1mb 82f 83f
12:50pm 5ft 6s 5s 13 16 mph 1019.3mb 81f 83f
11:50am 4.5ft 6s 5s 13 18 mph 1019.9mb 81f 83f
10:50am 4.5ft 6s 5s 16 18 mph 1019.1mb 81f 83f
9:50am 4.5ft 7s 5s 16 18 mph 1019.3mb 81f 82f
8:50am 5ft 7s 5s 16 18 mph 1019mb 81f 82f
7:50am 4.5ft 6s 5s 13 18 mph 1018.9mb 81f 82f
6:50am 4.5ft 7s 5s 13 16 mph 1018.5mb 81f 82f
5:50am 4.5ft 7s 5s 9 11 mph 1018.4mb 81f 81f
4:50am 4.5ft 7s 5s 13 16 mph 1018.1mb 81f 82f
3:50am 5ft 6s 5s 16 18 mph 1017.8mb 81f 82f
2:50am 5ft 7s 6s 16 18 mph 1017.9mb 81f 82f
1:50am 5ft 6s 5s 11 13 mph 1018mb 81f 82f
12:50am 5ft 7s 5s 13 16 mph 1018.1mb 81f 82f
Mon 08/03 11:50pm 5ft 6s 5s 11 13 mph 1018.3mb 81f 82f
10:50pm 5ft 6s 5s 13 16 mph 1018.2mb 81f 82f
9:50pm 5ft 7s 5s 9 11 mph 1018.2mb 81f 80f
8:50pm 4.5ft 6s 5s 13 18 mph 1017.8mb 81f 80f
7:50pm 5ft 6s 5s 16 18 mph 1017.6mb 81f 83f
6:50pm 5ft 7s 5s 16 18 mph 1016.7mb 81f 83f
5:50pm 5ft 6s 5s 16 20 mph 1016.6mb 81f 83f
4:50pm 5ft 6s 5s 13 16 mph 1016.9mb 81f 83f
3:50pm 5ft 7s 5s 13 18 mph 1017mb 81f 83f
2:50pm 5ft 6s 5s 16 20 mph 1017.3mb 81f 83f
1:50pm 5ft 6s 5s 18 20 mph 1017.5mb 81f 83f
12:50pm 4.5ft 6s 5s 16 20 mph 1017.6mb 81f 83f
11:50am 4.5ft 6s 5s 16 18 mph 1017.5mb 81f 83f
10:50am 4.5ft 6s 5s 16 18 mph 1017.7mb 81f 83f
9:50am 5ft 6s 5s 16 18 mph 1017.4mb 81f 83f
8:50am 5ft 6s 5s 16 18 mph 1017.3mb 81f 83f
7:50am 4.5ft 6s 5s 18 20 mph 1016.8mb 81f 82f
6:50am 4.5ft 6s 5s 18 22 mph 1016.3mb 81f 82f
5:50am 4.5ft 6s 5s 16 20 mph 1015.9mb 81f 82f
4:50am 4.5ft 6s 5s 16 20 mph 1015.6mb 81f 82f
3:50am 4.5ft 6s 5s 20 22 mph 1015.5mb 81f 82f
2:50am 4.5ft 6s 5s 18 22 mph 1015.7mb 81f 82f
1:50am 4.5ft 7s 5s 18 22 mph 1016.2mb 81f 82f
12:50am 4.5ft 7s 5s 16 18 mph 1016.9mb 81f 82f
Sun 08/02 11:50pm 4.5ft 7s 6s 13 18 mph 1016.8mb 81f 82f
10:50pm 4.5ft 7s 6s 9 11 mph 1016.9mb 81f 81f
9:50pm 4.5ft 7s 6s 4 7 mph 1016.8mb 81f 81f
8:50pm 4.5ft 8s 6s 4
mph
1016.2mb 81f 81f
7:50pm 4.5ft 7s 6s 4
mph
1016.4mb 81f 80f
6:50pm 5ft 8s 6s 7 9 mph 1016.3mb 81f 79f
5:50pm 5.5ft 7s 6s 4 7 mph 1017mb 81f 78f
4:50pm 5.5ft 7s 5s 2 4 mph 1017.3mb 81f 76f
3:50pm 6ft 8s 6s 7 13 mph 1016.7mb 81f 80f
2:50pm 5.5ft 7s 6s 7 9 mph 1017mb 81f 82f
1:50pm 7ft 8s 6s 13 18 mph 1017mb 81f 83f
12:50pm 7ft 8s 6s 16 18 mph 1017mb 81f 83f
11:50am 7ft 8s 6s 16 20 mph 1016.5mb 81f 83f
10:50am 7ft 8s 6s 13 18 mph 1016.5mb 81f 83f
9:50am 6.5ft 8s 6s 18 22 mph 1015.7mb 81f 83f
8:50am 6ft 7s 6s 16 20 mph 1015.9mb 81f 83f
7:50am 6ft 7s 6s 18 20 mph 1015.5mb 81f 83f
6:50am 6ft 7s 6s 13 18 mph 1015.6mb 81f 82f
5:50am 6ft 8s 6s 16 18 mph 1015mb 81f 82f
4:50am 6.5ft 6s 6s 18 20 mph 1014.7mb 81f 82f
3:50am 6ft 6s 6s 20 25 mph 1014.7mb 81f 83f
2:50am 6ft 6s 6s 20 25 mph 1015.4mb 81f 83f
1:50am 6.5ft 8s 6s 20 25 mph 1015.5mb 81f 83f
12:50am 6.5ft 7s 6s 20 22 mph 1015.8mb 81f 83f
Sat 08/01 11:50pm 6.5ft 8s 6s 18 22 mph 1015.9mb 81f 82f
10:50pm 6.5ft 7s 6s 18 22 mph 1016.1mb 81f 83f
9:50pm 6ft 7s 6s 16 18 mph 1015.9mb 81f 83f
8:50pm 6.5ft 7s 6s 16 22 mph 1015.2mb 81f 83f
7:50pm 6ft 7s 6s 16 18 mph 1015mb 81f 83f
6:50pm 6ft 7s 6s 13 16 mph 1014.8mb 81f 83f
5:50pm 6ft 6s 6s 16 20 mph 1015mb 81f 83f
4:50pm 6ft 7s 6s 16 18 mph 1015.5mb 81f 83f
3:50pm 6ft 7s 6s 18 22 mph 1015.9mb 81f 83f
2:50pm 6ft 7s 6s 20 22 mph 1016.1mb 81f 83f
1:50pm 6ft 7s 5s 20 25 mph 1016.3mb 81f 84f
12:50pm 6ft 7s 5s 18 22 mph 1016.7mb 81f 83f
11:50am 6ft 7s 5s 18 22 mph 1016.7mb 81f 83f